Terminal Aerodrome Forecast
Issued by NWS Sterling, VA

Home | Current Version | Previous Version | Text Only | Print | Product List | Glossary On
Versions: 1 2 3 4 5 6 7 8 9 10 11 12 13 14 15 16 17 18 19 20 21 22 23
384
FTUS41 KLWX 101136
TAFIAD
TAF
KIAD 101136Z 1012/1118 29013G22KT P6SM BKN070
     FM102000 28012KT P6SM BKN050
     FM110300 29014G22KT P6SM SCT250=

USA.gov is the U.S. government's official web portal to all federal, state and local government web resources and services.